createdAt,value
2022-10-17T00:02:51.429Z,96342.63
2022-10-17T00:05:54.473Z,96351.66
2022-10-17T00:08:57.553Z,96336.78
2022-10-17T00:12:02.704Z,96340.50
2022-10-17T00:15:08.030Z,96346.59
2022-10-17T00:18:11.082Z,96346.88
2022-10-17T00:21:17.846Z,96347.41
2022-10-17T00:24:21.121Z,96347.66
2022-10-17T00:27:26.157Z,96355.63
2022-10-17T00:30:29.440Z,96351.63
2022-10-17T00:33:33.229Z,96349.22
2022-10-17T00:36:36.219Z,96353.47
2022-10-17T00:39:39.750Z,96356.94
2022-10-17T00:42:44.179Z,96351.88
2022-10-17T00:45:47.170Z,96362.78
2022-10-17T00:48:52.106Z,96363.84
2022-10-17T00:51:58.623Z,96362.78
2022-10-17T00:55:08.595Z,96361.97
2022-10-17T00:58:13.173Z,96360.13
2022-10-17T01:01:16.597Z,96364.38
2022-10-17T01:04:20.447Z,96361.72
2022-10-17T01:07:24.075Z,96360.38
2022-10-17T01:10:33.299Z,96354.53
2022-10-17T01:13:43.331Z,96353.72
2022-10-17T01:16:53.258Z,96360.09
2022-10-17T01:20:33.619Z,96351.06
2022-10-17T01:24:29.974Z,96354.78
2022-10-17T01:27:51.979Z,96350.00
2022-10-17T01:31:05.598Z,96356.91
2022-10-17T01:34:15.769Z,96357.19
2022-10-17T01:37:25.189Z,96354.53
2022-10-17T01:40:31.719Z,96356.38
2022-10-17T01:43:40.343Z,96364.63
2022-10-17T01:46:48.084Z,96364.06
2022-10-17T01:49:55.036Z,96363.81
2022-10-17T01:53:04.017Z,96367.28
2022-10-17T01:56:10.595Z,96360.63
2022-10-17T01:59:16.317Z,96364.06
2022-10-17T02:02:22.545Z,96373.06
2022-10-17T02:05:30.502Z,96369.63
2022-10-17T02:08:43.050Z,96373.34
2022-10-17T02:11:54.381Z,96378.66
2022-10-17T02:15:18.407Z,96373.06
2022-10-17T02:18:35.810Z,96371.25
2022-10-17T02:21:51.112Z,96378.13
2022-10-17T02:25:00.573Z,96377.31
2022-10-17T02:28:12.027Z,96382.38
2022-10-17T02:31:18.881Z,96376.53
2022-10-17T02:34:30.199Z,96389.81
2022-10-17T02:37:34.041Z,96388.75
2022-10-17T02:40:38.519Z,96380.25
2022-10-17T02:43:45.270Z,96379.19
2022-10-17T02:46:56.798Z,96394.56
2022-10-17T02:50:01.359Z,96393.53
2022-10-17T02:53:09.854Z,96395.13
2022-10-17T02:56:18.537Z,96406.25
2022-10-17T02:59:24.228Z,96405.47
2022-10-17T03:02:27.894Z,96414.22
2022-10-17T03:05:32.630Z,96409.72
2022-10-17T03:08:35.709Z,96404.66
2022-10-17T03:11:38.837Z,96417.97
2022-10-17T03:14:41.873Z,96421.97
2022-10-17T03:20:49.612Z,96420.09
2022-10-17T03:23:52.651Z,96423.88
2022-10-17T03:26:55.648Z,96424.94
2022-10-17T03:29:58.624Z,96426.00
2022-10-17T03:33:01.987Z,96419.38
2022-10-17T03:36:10.687Z,96426.81
2022-10-17T03:39:14.115Z,96424.94
2022-10-17T03:42:17.195Z,96428.88
2022-10-17T03:45:20.225Z,96431.75
2022-10-17T03:48:23.239Z,96433.09
2022-10-17T03:51:27.673Z,96442.66
2022-10-17T03:54:30.799Z,96447.16
2022-10-17T03:57:35.956Z,96443.47
2022-10-17T04:00:39.365Z,96441.34
2022-10-17T04:03:43.171Z,96429.44
2022-10-17T04:06:47.588Z,96437.69
2022-10-17T04:09:50.611Z,96441.19
2022-10-17T04:12:53.610Z,96436.44
2022-10-17T04:15:56.977Z,96447.34
2022-10-17T04:19:01.222Z,96443.03
2022-10-17T04:22:08.486Z,96454.09
2022-10-17T04:25:11.839Z,96454.34
2022-10-17T04:28:14.847Z,96448.22
2022-10-17T04:31:18.510Z,96450.66
2022-10-17T04:34:21.499Z,96454.63
2022-10-17T04:37:25.934Z,96453.34
2022-10-17T04:40:28.938Z,96452.56
2022-10-17T04:43:32.024Z,96461.59
2022-10-17T04:46:36.189Z,96458.09
2022-10-17T04:52:43.885Z,96467.13
2022-10-17T04:55:46.877Z,96466.06
2022-10-17T04:58:50.560Z,96457.03
2022-10-17T05:01:53.561Z,96470.59
2022-10-17T05:04:56.570Z,96472.69
2022-10-17T05:08:00.925Z,96477.47
2022-10-17T05:11:05.866Z,96486.25
2022-10-17T05:14:09.401Z,96481.22
2022-10-17T05:17:12.745Z,96487.84
2022-10-17T05:20:15.873Z,96488.09
2022-10-17T05:23:20.312Z,96495.00
2022-10-17T05:26:24.491Z,96496.88
2022-10-17T05:29:27.579Z,96499.81
2022-10-17T05:32:30.831Z,96503.53
2022-10-17T05:35:34.037Z,96501.13
2022-10-17T05:38:38.397Z,96509.34
2022-10-17T05:41:41.398Z,96508.84
2022-10-17T05:44:44.376Z,96504.84
2022-10-17T05:47:47.447Z,96503.53
2022-10-17T05:50:50.903Z,96509.63
2022-10-17T05:53:55.394Z,96518.19
2022-10-17T05:56:58.580Z,96515.25
2022-10-17T06:00:01.747Z,96521.16
2022-10-17T06:03:05.282Z,96524.38
2022-10-17T06:06:10.199Z,96524.72
2022-10-17T06:09:14.728Z,96530.38
2022-10-17T06:12:17.927Z,96535.19
2022-10-17T06:15:20.956Z,96536.31
2022-10-17T06:18:24.071Z,96543.78
2022-10-17T06:21:29.104Z,96544.38
2022-10-17T06:24:33.516Z,96550.81
2022-10-17T06:27:36.838Z,96547.66
2022-10-17T06:30:40.214Z,96557.31
2022-10-17T06:33:43.785Z,96550.13
2022-10-17T06:36:46.986Z,96564.81
2022-10-17T06:39:51.399Z,96566.44
2022-10-17T06:42:54.381Z,96563.50
2022-10-17T06:49:00.363Z,96557.41
2022-10-17T06:52:03.351Z,96569.13
2022-10-17T06:55:08.481Z,96559.56
2022-10-17T06:58:11.469Z,96564.63
2022-10-17T07:01:14.946Z,96563.00
2022-10-17T07:04:17.982Z,96558.47
2022-10-17T07:07:21.043Z,96569.19
2022-10-17T07:10:25.446Z,96566.53
2022-10-17T07:13:28.537Z,96568.63
2022-10-17T07:16:31.541Z,96570.53
2022-10-17T07:19:34.706Z,96568.66
2022-10-17T07:22:37.673Z,96563.31
2022-10-17T07:25:42.098Z,96564.38
2022-10-17T07:28:46.778Z,96571.81
2022-10-17T07:31:50.382Z,96564.13
2022-10-17T07:34:53.408Z,96575.03
2022-10-17T07:37:56.428Z,96556.34
2022-10-17T07:41:02.426Z,96561.94
2022-10-17T07:44:05.646Z,96571.25
2022-10-17T07:47:08.713Z,96567.28
2022-10-17T07:50:11.891Z,96574.75
2022-10-17T07:53:15.080Z,96575.00
2022-10-17T07:56:19.499Z,96571.81
2022-10-17T07:59:22.549Z,96566.44
2022-10-17T08:02:27.471Z,96568.03
2022-10-17T08:05:30.925Z,96558.44
2022-10-17T08:08:34.056Z,96562.44
2022-10-17T08:11:38.708Z,96559.78
2022-10-17T08:14:41.876Z,96558.19
2022-10-17T08:17:44.890Z,96550.41
2022-10-17T08:20:48.742Z,96556.03
2022-10-17T08:23:51.770Z,96548.03
2022-10-17T08:26:58.267Z,96551.50
2022-10-17T08:30:01.401Z,96546.72
2022-10-17T08:33:04.481Z,96545.38
2022-10-17T08:36:08.717Z,96546.44
2022-10-17T08:39:11.739Z,96547.75
2022-10-17T08:42:35.769Z,96554.97
2022-10-17T08:45:46.386Z,96545.63
2022-10-17T08:48:52.805Z,96545.34
2022-10-17T08:52:01.001Z,96556.31
2022-10-17T08:55:04.102Z,96550.44
2022-10-17T08:58:15.438Z,96551.00
2022-10-17T09:01:34.802Z,96546.72
2022-10-17T09:04:52.871Z,96554.19
2022-10-17T09:08:06.296Z,96546.22
2022-10-17T09:11:22.560Z,96552.34
2022-10-17T09:14:45.629Z,96551.00
2022-10-17T09:17:55.880Z,96547.25
2022-10-17T09:21:03.378Z,96545.16
2022-10-17T09:24:15.833Z,96547.00
2022-10-17T09:27:27.295Z,96543.53
2022-10-17T09:30:45.045Z,96548.88
2022-10-17T09:33:55.122Z,96547.78
2022-10-17T09:37:00.582Z,96541.66
2022-10-17T09:40:03.609Z,96545.41
2022-10-17T09:43:08.947Z,96541.94
2022-10-17T09:46:21.275Z,96541.38
2022-10-17T09:49:30.452Z,96543.25
2022-10-17T09:52:36.790Z,96537.94
2022-10-17T09:55:43.359Z,96533.38
2022-10-17T09:58:48.930Z,96536.84
2022-10-17T10:02:09.079Z,96531.53
2022-10-17T10:05:17.789Z,96523.25
2022-10-17T10:08:21.277Z,96529.66
2022-10-17T10:11:26.985Z,96521.66
2022-10-17T10:14:33.458Z,96518.47
2022-10-17T10:17:41.799Z,96514.19
2022-10-17T10:20:46.871Z,96517.94
2022-10-17T10:24:13.356Z,96514.72
2022-10-17T10:27:18.758Z,96508.06
2022-10-17T10:30:27.049Z,96509.41
2022-10-17T10:33:33.235Z,96498.75
2022-10-17T10:36:49.305Z,96498.22
2022-10-17T10:39:54.541Z,96488.06
2022-10-17T10:43:04.900Z,96489.13
2022-10-17T10:46:19.198Z,96493.94
2022-10-17T10:49:33.524Z,96487.00
2022-10-17T10:52:43.937Z,96482.50
2022-10-17T10:55:51.517Z,96479.84
2022-10-17T10:58:58.225Z,96475.84
2022-10-17T11:02:06.231Z,96474.25
2022-10-17T11:05:19.102Z,96463.03
2022-10-17T11:08:30.268Z,96464.09
2022-10-17T11:11:39.272Z,96456.09
2022-10-17T11:14:48.165Z,96466.00
2022-10-17T11:17:58.113Z,96465.72
2022-10-17T11:21:11.778Z,96448.13
2022-10-17T11:24:21.888Z,96451.34
2022-10-17T11:27:26.010Z,96450.81
2022-10-17T11:30:41.162Z,96449.22
2022-10-17T11:33:48.317Z,96440.97
2022-10-17T11:36:57.923Z,96448.97
2022-10-17T11:40:04.250Z,96444.69
2022-10-17T11:43:16.078Z,96436.97
2022-10-17T11:46:23.836Z,96438.56
2022-10-17T11:49:34.217Z,96441.50
2022-10-17T11:53:02.728Z,96435.66
2022-10-17T11:56:06.703Z,96427.16
2022-10-17T11:59:31.960Z,96425.28
2022-10-17T12:02:43.743Z,96422.06
2022-10-17T12:05:51.790Z,96425.81
2022-10-17T12:09:02.631Z,96429.25
2022-10-17T12:12:05.890Z,96425.78
2022-10-17T12:15:38.944Z,96426.06
2022-10-17T12:18:42.052Z,96422.88
2022-10-17T12:21:57.065Z,96427.41
2022-10-17T12:25:03.848Z,96418.63
2022-10-17T12:28:16.529Z,96425.03
2022-10-17T12:31:29.662Z,96425.03
2022-10-17T12:34:37.049Z,96413.56
2022-10-17T12:38:03.730Z,96418.09
2022-10-17T12:41:08.423Z,96410.38
2022-10-17T12:44:38.047Z,96413.81
2022-10-17T12:47:41.098Z,96400.78
2022-10-17T12:54:37.823Z,96409.56
2022-10-17T12:57:58.735Z,96410.91
2022-10-17T13:04:25.979Z,96400.25
2022-10-17T13:07:30.140Z,96405.84
2022-10-17T13:10:38.843Z,96403.72
2022-10-17T13:13:48.883Z,96406.38
2022-10-17T13:16:55.358Z,96400.25
2022-10-17T13:19:59.225Z,96399.19
2022-10-17T13:23:02.396Z,96396.53
2022-10-17T13:26:14.248Z,96401.34
2022-10-17T13:29:20.346Z,96401.59
2022-10-17T13:32:24.614Z,96396.56
2022-10-17T13:35:55.420Z,96402.91
2022-10-17T13:38:54.544Z,96399.72
2022-10-17T13:41:59.542Z,96406.66
2022-10-17T13:45:04.690Z,96400.53
2022-10-17T13:48:18.372Z,96405.84
2022-10-17T13:51:21.658Z,96400.53
2022-10-17T13:54:35.292Z,96400.00
2022-10-17T13:57:38.283Z,96395.72
2022-10-17T14:00:42.806Z,96404.53
2022-10-17T14:03:48.912Z,96402.13
2022-10-17T14:06:54.140Z,96394.94
2022-10-17T14:09:57.292Z,96404.00
2022-10-17T14:13:01.699Z,96409.31
2022-10-17T14:16:08.603Z,96409.31
2022-10-17T14:19:22.552Z,96417.31
2022-10-17T14:22:29.578Z,96412.25
2022-10-17T14:25:35.586Z,96415.19
2022-10-17T14:28:39.794Z,96415.19
2022-10-17T14:31:44.354Z,96414.38
2022-10-17T14:34:48.072Z,96412.78
2022-10-17T14:37:54.129Z,96412.78
2022-10-17T14:41:22.072Z,96413.59
2022-10-17T14:44:27.645Z,96415.19
2022-10-17T14:47:43.085Z,96415.72
2022-10-17T14:51:11.806Z,96421.84
2022-10-17T14:54:23.474Z,96423.97
2022-10-17T14:57:42.986Z,96432.25
2022-10-17T15:00:46.063Z,96436.50
2022-10-17T15:03:50.471Z,96441.00
2022-10-17T15:06:56.060Z,96433.31
2022-10-17T15:09:59.130Z,96443.94
2022-10-17T15:16:27.443Z,96445.81
2022-10-17T15:19:31.907Z,96442.88
2022-10-17T15:22:36.635Z,96444.22
2022-10-17T15:25:40.448Z,96447.66
2022-10-17T15:28:43.890Z,96449.78
2022-10-17T15:31:47.328Z,96453.50
2022-10-17T15:34:52.162Z,96450.56
2022-10-17T15:37:55.754Z,96448.97
2022-10-17T15:40:58.752Z,96457.75
2022-10-17T15:44:01.903Z,96463.09
2022-10-17T15:47:05.248Z,96463.09
2022-10-17T15:50:14.490Z,96459.63
2022-10-17T15:53:17.518Z,96462.53
2022-10-17T15:56:24.005Z,96467.06
2022-10-17T15:59:31.648Z,96475.31
2022-10-17T16:02:35.322Z,96469.69
2022-10-17T16:05:39.774Z,96485.91
2022-10-17T16:08:42.766Z,96490.19
2022-10-17T16:11:46.559Z,96495.75
2022-10-17T16:14:49.571Z,96506.41
2022-10-17T16:17:53.692Z,96498.94
2022-10-17T16:20:58.302Z,96515.19
2022-10-17T16:24:02.215Z,96512.78
2022-10-17T16:27:05.268Z,96514.66
2022-10-17T16:30:09.687Z,96521.28
2022-10-17T16:33:13.510Z,96525.81
2022-10-17T16:36:18.546Z,96525.28
2022-10-17T16:39:21.714Z,96530.63
2022-10-17T16:42:24.877Z,96533.34
2022-10-17T16:45:27.968Z,96533.88
2022-10-17T16:48:31.085Z,96533.28
2022-10-17T16:51:36.980Z,96538.59
2022-10-17T16:54:40.012Z,96538.94
2022-10-17T17:00:53.082Z,96554.69
2022-10-17T17:03:56.910Z,96548.31
2022-10-17T17:07:01.336Z,96550.69
2022-10-17T17:10:04.956Z,96555.50
2022-10-17T17:13:07.982Z,96560.81
2022-10-17T17:16:12.964Z,96565.34
2022-10-17T17:19:18.027Z,96563.22
2022-10-17T17:22:22.445Z,96570.13
2022-10-17T17:25:25.561Z,96571.78
2022-10-17T17:28:29.200Z,96578.69
2022-10-17T17:31:34.526Z,96573.91
2022-10-17T17:34:38.505Z,96582.44
2022-10-17T17:37:42.954Z,96584.56
2022-10-17T17:40:50.530Z,96586.94
2022-10-17T17:43:54.828Z,96589.59
2022-10-17T17:46:57.887Z,96593.59
2022-10-17T17:50:00.941Z,96593.59
2022-10-17T17:53:05.559Z,96596.00
2022-10-17T17:56:11.614Z,96592.81
2022-10-17T17:59:14.688Z,96593.59
2022-10-17T18:02:17.819Z,96593.59
2022-10-17T18:05:21.280Z,96600.53
2022-10-17T18:08:25.738Z,96594.66
2022-10-17T18:11:29.534Z,96590.41
2022-10-17T18:14:32.644Z,96603.19
2022-10-17T18:17:36.076Z,96603.47
2022-10-17T18:20:41.783Z,96598.41
2022-10-17T18:23:47.920Z,96604.75
2022-10-17T18:26:51.131Z,96601.81
2022-10-17T18:29:54.207Z,96589.31
2022-10-17T18:32:57.297Z,96593.53
2022-10-17T18:36:07.204Z,96602.56
2022-10-17T18:39:11.739Z,96597.50
2022-10-17T18:42:14.710Z,96601.50
2022-10-17T18:45:17.969Z,96604.75
2022-10-17T18:48:21.040Z,96606.06
2022-10-17T18:51:26.223Z,96605.00
2022-10-17T18:54:33.639Z,96604.22
2022-10-17T18:57:36.647Z,96608.22
2022-10-17T19:00:39.693Z,96613.53
2022-10-17T19:03:43.308Z,96614.88
2022-10-17T19:06:46.297Z,96617.75
2022-10-17T19:09:50.797Z,96618.00
2022-10-17T19:12:54.233Z,96624.06
2022-10-17T19:15:57.237Z,96619.50
2022-10-17T19:19:02.598Z,96616.31
2022-10-17T19:22:05.779Z,96624.81
2022-10-17T19:25:11.205Z,96619.75
2022-10-17T19:28:14.478Z,96617.63
2022-10-17T19:31:19.381Z,96623.22
2022-10-17T19:34:25.144Z,96621.59
2022-10-17T19:37:28.858Z,96617.59
2022-10-17T19:40:35.191Z,96620.50
2022-10-17T19:43:38.725Z,96619.41
2022-10-17T19:46:44.371Z,96625.53
2022-10-17T19:49:50.000Z,96623.94
2022-10-17T19:52:53.341Z,96633.25
2022-10-17T19:55:58.122Z,96626.31
2022-10-17T19:59:01.207Z,96629.50
2022-10-17T20:02:04.323Z,96629.50
2022-10-17T20:05:21.667Z,96636.41
2022-10-17T20:11:36.445Z,96645.72
2022-10-17T20:14:41.156Z,96638.81
2022-10-17T20:17:44.298Z,96640.34
2022-10-17T20:20:47.366Z,96640.59
2022-10-17T20:23:50.699Z,96636.34
2022-10-17T20:26:55.159Z,96637.41
2022-10-17T20:30:01.850Z,96639.00
2022-10-17T20:33:05.073Z,96632.88
2022-10-17T20:36:09.326Z,96627.28
2022-10-17T20:39:13.843Z,96629.66
2022-10-17T20:42:18.333Z,96619.84
2022-10-17T20:45:37.349Z,96611.31
2022-10-17T20:48:45.811Z,96621.94
2022-10-17T20:51:49.034Z,96618.75
2022-10-17T20:54:52.024Z,96617.13
2022-10-17T20:57:56.512Z,96618.75
2022-10-17T21:00:59.617Z,96621.63
2022-10-17T21:04:26.839Z,96626.97
2022-10-17T21:07:26.440Z,96620.28
2022-10-17T21:10:35.291Z,96623.75
2022-10-17T21:13:40.894Z,96623.75
2022-10-17T21:16:44.433Z,96627.47
2022-10-17T21:19:48.540Z,96617.09
2022-10-17T21:22:52.357Z,96616.03
2022-10-17T21:25:55.287Z,96620.56
2022-10-17T21:29:03.006Z,96616.03
2022-10-17T21:32:14.651Z,96618.69
2022-10-17T21:35:28.295Z,96625.34
2022-10-17T21:38:31.644Z,96617.34
2022-10-17T21:41:34.992Z,96621.34
2022-10-17T21:44:39.451Z,96616.28
2022-10-17T21:47:55.033Z,96620.00
2022-10-17T21:51:07.736Z,96626.09
2022-10-17T21:54:10.977Z,96617.31
2022-10-17T21:57:14.001Z,96611.47
2022-10-17T22:00:19.069Z,96614.13
2022-10-17T22:03:22.120Z,96614.94
2022-10-17T22:06:39.746Z,96611.47
2022-10-17T22:09:43.775Z,96613.31
2022-10-17T22:12:46.773Z,96610.41
2022-10-17T22:15:51.245Z,96606.63
2022-10-17T22:19:00.511Z,96607.69
2022-10-17T22:22:06.374Z,96611.72
2022-10-17T22:25:10.345Z,96613.81
2022-10-17T22:28:13.375Z,96611.97
2022-10-17T22:31:17.811Z,96608.75
2022-10-17T22:34:21.040Z,96610.63
2022-10-17T22:37:24.386Z,96605.00
2022-10-17T22:40:27.425Z,96607.69
2022-10-17T22:43:30.461Z,96601.56
2022-10-17T22:46:35.017Z,96597.03
2022-10-17T22:49:38.025Z,96599.97
2022-10-17T22:52:41.058Z,96604.47
2022-10-17T22:55:44.015Z,96596.50
2022-10-17T22:58:47.689Z,96596.25
2022-10-17T23:01:52.172Z,96593.03
2022-10-17T23:04:55.313Z,96597.28
2022-10-17T23:07:58.290Z,96590.13
2022-10-17T23:11:01.335Z,96589.28
2022-10-17T23:14:04.325Z,96590.38
2022-10-17T23:17:09.048Z,96589.81
2022-10-17T23:20:12.625Z,96587.66
2022-10-17T23:23:15.725Z,96591.94
2022-10-17T23:26:18.723Z,96589.53
2022-10-17T23:29:22.233Z,96579.69
2022-10-17T23:32:26.719Z,96582.34
2022-10-17T23:35:29.899Z,96594.84
2022-10-17T23:38:33.185Z,96587.94
2022-10-17T23:41:36.181Z,96583.66
2022-10-17T23:44:39.165Z,96582.03
2022-10-17T23:47:43.610Z,96577.03
2022-10-17T23:50:46.690Z,96578.34
2022-10-17T23:53:49.723Z,96575.91
2022-10-17T23:56:53.001Z,96580.75
2022-10-17T23:59:56.212Z,96580.44
